createdAt,value
2022-12-19T16:37:02.105Z,1052.00
2022-12-19T16:38:01.971Z,1183.00
2022-12-19T16:39:01.887Z,1212.00
2022-12-19T16:40:01.778Z,1422.00
2022-12-19T16:41:01.834Z,1207.00
2022-12-19T16:42:01.554Z,1224.00
2022-12-19T16:43:01.427Z,1465.00
2022-12-19T16:47:44.222Z,1026.00
2022-12-19T16:48:44.218Z,1017.00
2022-12-19T16:49:44.221Z,998.00
2022-12-19T16:50:44.190Z,987.00
2022-12-19T16:51:44.205Z,979.00
2022-12-19T16:52:44.164Z,985.00
2022-12-19T16:53:44.189Z,990.00
2022-12-19T16:54:44.161Z,988.00
2022-12-19T16:55:44.165Z,978.00
2022-12-19T16:56:44.144Z,992.00
2022-12-19T16:57:44.147Z,998.00
2022-12-19T16:58:44.135Z,995.00
2022-12-19T16:59:44.132Z,997.00
2022-12-19T17:00:44.123Z,976.00
2022-12-19T17:01:44.303Z,949.00
2022-12-19T17:02:44.237Z,934.00
2022-12-19T17:03:44.092Z,925.00
2022-12-19T17:04:48.940Z,960.00
2022-12-19T17:05:45.069Z,933.00
2022-12-19T17:06:44.064Z,953.00
2022-12-19T17:07:44.051Z,960.00
2022-12-19T17:08:44.042Z,960.00
2022-12-19T17:09:44.040Z,972.00
2022-12-19T17:10:44.028Z,959.00
2022-12-19T17:11:44.019Z,954.00
2022-12-19T17:12:44.030Z,957.00
2022-12-19T17:13:44.019Z,969.00
2022-12-19T17:14:43.977Z,984.00
2022-12-19T17:15:44.002Z,987.00
2022-12-19T17:16:44.016Z,989.00
2022-12-19T17:17:43.986Z,1005.00
2022-12-19T17:18:43.946Z,987.00
2022-12-19T17:19:43.950Z,992.00
2022-12-19T17:20:43.935Z,986.00
2022-12-19T17:21:43.956Z,975.00
2022-12-19T17:22:43.926Z,969.00
2022-12-19T17:23:43.922Z,981.00
2022-12-19T17:24:43.903Z,986.00
2022-12-19T17:25:43.921Z,987.00
2022-12-19T17:26:43.879Z,982.00
2022-12-19T17:27:43.886Z,979.00
2022-12-19T17:28:43.863Z,979.00
2022-12-19T17:29:43.890Z,980.00
2022-12-19T17:30:43.924Z,985.00
2022-12-19T17:31:43.932Z,988.00
2022-12-19T17:32:43.883Z,985.00
2022-12-19T17:33:43.852Z,965.00
2022-12-19T17:34:43.830Z,976.00
2022-12-19T17:35:43.844Z,978.00
2022-12-19T17:36:43.803Z,986.00
2022-12-19T17:37:43.832Z,986.00
2022-12-19T17:38:43.801Z,990.00
2022-12-19T17:39:43.812Z,991.00
2022-12-19T17:40:43.784Z,991.00
2022-12-19T17:41:43.777Z,966.00
2022-12-19T21:21:33.555Z,2719.00
2022-12-19T21:22:33.256Z,2646.00
2022-12-19T21:23:33.055Z,2584.00
2022-12-19T21:24:33.053Z,2574.00
2022-12-19T21:25:32.552Z,2558.00
2022-12-19T21:26:32.545Z,1559.00
2022-12-19T21:27:32.234Z,1410.00
2022-12-19T21:28:32.153Z,1024.00
2022-12-19T21:29:32.877Z,864.00
2022-12-19T21:30:32.060Z,747.00
2022-12-19T21:31:31.711Z,659.00
2022-12-19T21:32:31.568Z,781.00
2022-12-19T21:33:33.013Z,1102.00
2022-12-19T21:34:31.293Z,1443.00
2022-12-19T21:35:33.023Z,1446.00
2022-12-19T21:36:31.016Z,1564.00
2022-12-19T21:37:34.096Z,1607.00
2022-12-19T21:38:31.628Z,1772.00
2022-12-19T21:39:30.494Z,1768.00
2022-12-19T21:40:30.320Z,1761.00
2022-12-19T21:41:31.009Z,1750.00
2022-12-19T21:42:29.997Z,1709.00
2022-12-19T21:43:30.508Z,1706.00
2022-12-19T21:44:29.597Z,1693.00
2022-12-19T21:45:29.502Z,1644.00
2022-12-19T21:46:30.364Z,1646.00
2022-12-19T21:47:29.515Z,1658.00
2022-12-19T21:48:28.937Z,1661.00
2022-12-19T21:49:28.614Z,1660.00
2022-12-19T21:50:28.536Z,1665.00
2022-12-19T21:51:28.340Z,1665.00
2022-12-19T21:52:28.218Z,1661.00
2022-12-19T21:53:28.064Z,1680.00
2022-12-19T21:54:28.033Z,1669.00
2022-12-19T21:55:28.066Z,1666.00
2022-12-19T21:56:27.738Z,1665.00
2022-12-19T21:57:27.534Z,1662.00
2022-12-19T21:58:27.155Z,1660.00
2022-12-19T21:59:26.838Z,1658.00
2022-12-19T22:00:26.678Z,1653.00
2022-12-19T22:01:26.588Z,1652.00
2022-12-19T22:02:26.372Z,1652.00
2022-12-19T22:03:26.442Z,1652.00
2022-12-19T22:04:26.044Z,1649.00
2022-12-19T22:05:26.050Z,1644.00
2022-12-19T22:06:28.124Z,1645.00
2022-12-19T22:07:25.560Z,1649.00
2022-12-19T22:08:25.664Z,1647.00
2022-12-19T22:09:24.960Z,1643.00
2022-12-19T22:10:24.763Z,1642.00
2022-12-19T22:11:24.552Z,1645.00
2022-12-19T22:12:24.458Z,1644.00
2022-12-19T22:13:24.583Z,1643.00
2022-12-19T22:14:24.061Z,1644.00
2022-12-19T22:15:26.935Z,1641.00
2022-12-19T22:16:27.087Z,1640.00
2022-12-19T22:17:23.573Z,1639.00
2022-12-19T22:18:23.574Z,1637.00
2022-12-19T22:19:23.089Z,1636.00
2022-12-19T22:20:26.045Z,1637.00
2022-12-19T22:21:22.781Z,1637.00
2022-12-19T22:22:22.501Z,1639.00
2022-12-19T22:23:22.279Z,1640.00
2022-12-19T22:24:22.078Z,1642.00
2022-12-19T22:25:22.603Z,1645.00
2022-12-19T22:26:21.709Z,1644.00
2022-12-19T22:27:21.503Z,1643.00
2022-12-19T22:28:21.333Z,1643.00
2022-12-19T22:29:21.092Z,1644.00
2022-12-19T22:30:21.018Z,1644.00
2022-12-19T22:34:21.168Z,1645.00
2022-12-19T22:35:21.547Z,1643.00
2022-12-19T22:36:27.367Z,1645.00
2022-12-19T22:37:21.107Z,1648.00
2022-12-19T22:38:19.408Z,1651.00
2022-12-19T22:39:19.239Z,1649.00
2022-12-19T22:40:19.014Z,1651.00
2022-12-19T22:41:18.835Z,1651.00
2022-12-19T22:42:18.616Z,1651.00
2022-12-19T22:43:18.447Z,1651.00
2022-12-19T22:44:18.348Z,1652.00
2022-12-19T22:45:18.163Z,1651.00
2022-12-19T22:46:18.053Z,1651.00
2022-12-19T22:47:17.737Z,1649.00
2022-12-19T22:48:17.573Z,1646.00
2022-12-19T22:49:17.692Z,1649.00
2022-12-19T22:50:17.676Z,1650.00
2022-12-19T22:51:17.172Z,1645.00
2022-12-19T22:52:17.156Z,1653.00
2022-12-19T22:53:16.665Z,1654.00
2022-12-19T22:54:16.702Z,1651.00
2022-12-19T22:55:16.692Z,1653.00
2022-12-19T22:56:16.172Z,1649.00
2022-12-19T22:57:15.896Z,1653.00
2022-12-19T22:58:15.570Z,1655.00
2022-12-19T22:59:15.462Z,1656.00
2022-12-19T23:00:15.254Z,1661.00
2022-12-19T23:01:15.080Z,1663.00
2022-12-19T23:02:14.977Z,1660.00
2022-12-19T23:03:14.813Z,1661.00
2022-12-19T23:04:14.734Z,1662.00
2022-12-19T23:05:14.298Z,1662.00
2022-12-19T23:06:14.088Z,1667.00
2022-12-19T23:07:13.870Z,1666.00
2022-12-19T23:08:13.689Z,1669.00
2022-12-19T23:09:13.505Z,1667.00
2022-12-19T23:10:13.691Z,1669.00
2022-12-19T23:24:13.677Z,1674.00
2022-12-19T23:28:09.935Z,1675.00
2022-12-19T23:29:09.756Z,1667.00
2022-12-19T23:33:08.935Z,1670.00
2022-12-19T23:34:08.749Z,1670.00
2022-12-19T23:36:09.177Z,1670.00
2022-12-19T23:37:11.175Z,1678.00
2022-12-19T23:38:08.046Z,1681.00
2022-12-19T23:39:07.861Z,1681.00
2022-12-19T23:40:07.652Z,1679.00
2022-12-19T23:41:07.447Z,1675.00
2022-12-19T23:42:07.247Z,1675.00
2022-12-19T23:43:07.657Z,1678.00
2022-12-19T23:44:07.177Z,1673.00
2022-12-19T23:46:07.620Z,1672.00
